sensor_id;sensor_type;location;lat;lon;timestamp;P1;durP1;ratioP1;P2;durP2;ratioP2
11837;SDS011;5978;51.020;6.764;2022-08-21T00:01:57;10.77;;;9.67;;
11837;SDS011;5978;51.020;6.764;2022-08-21T00:04:22;11.23;;;8.97;;
11837;SDS011;5978;51.020;6.764;2022-08-21T00:06:52;10.73;;;9.57;;
11837;SDS011;5978;51.020;6.764;2022-08-21T00:09:18;13.00;;;9.73;;
11837;SDS011;5978;51.020;6.764;2022-08-21T00:11:44;15.00;;;9.93;;
11837;SDS011;5978;51.020;6.764;2022-08-21T00:14:10;11.40;;;9.30;;
11837;SDS011;5978;51.020;6.764;2022-08-21T00:16:36;13.57;;;9.27;;
11837;SDS011;5978;51.020;6.764;2022-08-21T00:19:02;12.17;;;7.93;;
11837;SDS011;5978;51.020;6.764;2022-08-21T00:21:28;10.10;;;8.70;;
11837;SDS011;5978;51.020;6.764;2022-08-21T00:23:54;13.40;;;8.00;;
11837;SDS011;5978;51.020;6.764;2022-08-21T00:26:20;11.40;;;8.27;;
11837;SDS011;5978;51.020;6.764;2022-08-21T00:28:45;14.70;;;9.53;;
11837;SDS011;5978;51.020;6.764;2022-08-21T00:31:13;15.53;;;9.17;;
11837;SDS011;5978;51.020;6.764;2022-08-21T00:33:39;12.03;;;10.07;;
11837;SDS011;5978;51.020;6.764;2022-08-21T00:36:05;11.03;;;9.13;;
11837;SDS011;5978;51.020;6.764;2022-08-21T00:38:30;14.03;;;9.40;;
11837;SDS011;5978;51.020;6.764;2022-08-21T00:40:58;9.80;;;9.00;;
11837;SDS011;5978;51.020;6.764;2022-08-21T00:43:27;11.70;;;9.00;;
11837;SDS011;5978;51.020;6.764;2022-08-21T00:45:54;18.70;;;8.63;;
11837;SDS011;5978;51.020;6.764;2022-08-21T00:48:21;14.63;;;8.10;;
11837;SDS011;5978;51.020;6.764;2022-08-21T00:51:03;9.77;;;8.70;;
11837;SDS011;5978;51.020;6.764;2022-08-21T00:53:33;13.30;;;9.00;;
11837;SDS011;5978;51.020;6.764;2022-08-21T00:56:02;11.80;;;8.67;;
11837;SDS011;5978;51.020;6.764;2022-08-21T00:58:30;14.40;;;10.10;;
11837;SDS011;5978;51.020;6.764;2022-08-21T01:00:57;11.93;;;9.23;;
11837;SDS011;5978;51.020;6.764;2022-08-21T01:03:26;10.67;;;8.97;;
11837;SDS011;5978;51.020;6.764;2022-08-21T01:05:52;10.90;;;9.10;;
11837;SDS011;5978;51.020;6.764;2022-08-21T01:08:18;11.70;;;9.33;;
11837;SDS011;5978;51.020;6.764;2022-08-21T01:10:45;10.00;;;8.53;;
11837;SDS011;5978;51.020;6.764;2022-08-21T01:13:12;14.10;;;8.70;;
11837;SDS011;5978;51.020;6.764;2022-08-21T01:15:42;9.10;;;8.20;;
11837;SDS011;5978;51.020;6.764;2022-08-21T01:18:17;16.63;;;9.60;;
11837;SDS011;5978;51.020;6.764;2022-08-21T01:23:31;10.80;;;9.37;;
11837;SDS011;5978;51.020;6.764;2022-08-21T01:25:56;9.93;;;7.47;;
11837;SDS011;5978;51.020;6.764;2022-08-21T01:28:22;10.07;;;8.90;;
11837;SDS011;5978;51.020;6.764;2022-08-21T01:30:50;11.67;;;8.43;;
11837;SDS011;5978;51.020;6.764;2022-08-21T01:33:19;8.40;;;7.60;;
11837;SDS011;5978;51.020;6.764;2022-08-21T01:35:46;10.00;;;8.07;;
11837;SDS011;5978;51.020;6.764;2022-08-21T01:38:12;14.03;;;8.67;;
11837;SDS011;5978;51.020;6.764;2022-08-21T01:40:50;11.90;;;9.53;;
11837;SDS011;5978;51.020;6.764;2022-08-21T01:43:17;13.63;;;10.23;;
11837;SDS011;5978;51.020;6.764;2022-08-21T01:45:43;8.73;;;7.80;;
11837;SDS011;5978;51.020;6.764;2022-08-21T01:48:08;10.27;;;8.70;;
11837;SDS011;5978;51.020;6.764;2022-08-21T01:50:34;9.83;;;8.27;;
11837;SDS011;5978;51.020;6.764;2022-08-21T01:53:00;9.90;;;8.23;;
11837;SDS011;5978;51.020;6.764;2022-08-21T01:55:26;9.27;;;8.47;;
11837;SDS011;5978;51.020;6.764;2022-08-21T01:57:52;11.43;;;8.97;;
11837;SDS011;5978;51.020;6.764;2022-08-21T02:00:18;10.33;;;8.90;;
11837;SDS011;5978;51.020;6.764;2022-08-21T02:02:45;13.13;;;8.40;;
11837;SDS011;5978;51.020;6.764;2022-08-21T02:05:11;12.20;;;8.20;;
11837;SDS011;5978;51.020;6.764;2022-08-21T02:07:47;10.63;;;8.50;;
11837;SDS011;5978;51.020;6.764;2022-08-21T02:10:18;18.67;;;8.60;;
11837;SDS011;5978;51.020;6.764;2022-08-21T02:12:46;11.87;;;8.63;;
11837;SDS011;5978;51.020;6.764;2022-08-21T02:15:12;11.20;;;8.97;;
11837;SDS011;5978;51.020;6.764;2022-08-21T02:17:40;10.23;;;8.53;;
11837;SDS011;5978;51.020;6.764;2022-08-21T02:20:10;14.50;;;8.70;;
11837;SDS011;5978;51.020;6.764;2022-08-21T02:22:45;11.77;;;8.40;;
11837;SDS011;5978;51.020;6.764;2022-08-21T02:25:11;11.20;;;8.57;;
11837;SDS011;5978;51.020;6.764;2022-08-21T02:27:40;9.23;;;8.33;;
11837;SDS011;5978;51.020;6.764;2022-08-21T02:30:11;12.20;;;8.87;;
11837;SDS011;5978;51.020;6.764;2022-08-21T02:32:39;9.20;;;8.30;;
11837;SDS011;5978;51.020;6.764;2022-08-21T02:35:05;11.93;;;8.93;;
11837;SDS011;5978;51.020;6.764;2022-08-21T02:37:32;9.50;;;7.63;;
11837;SDS011;5978;51.020;6.764;2022-08-21T02:39:58;11.60;;;7.73;;
11837;SDS011;5978;51.020;6.764;2022-08-21T02:42:25;11.67;;;8.20;;
11837;SDS011;5978;51.020;6.764;2022-08-21T02:44:50;8.97;;;8.20;;
11837;SDS011;5978;51.020;6.764;2022-08-21T02:47:16;9.60;;;8.67;;
11837;SDS011;5978;51.020;6.764;2022-08-21T02:49:42;8.90;;;8.00;;
11837;SDS011;5978;51.020;6.764;2022-08-21T02:52:07;8.83;;;8.03;;
11837;SDS011;5978;51.020;6.764;2022-08-21T02:54:33;9.23;;;8.30;;
11837;SDS011;5978;51.020;6.764;2022-08-21T02:56:58;9.40;;;8.43;;
11837;SDS011;5978;51.020;6.764;2022-08-21T02:59:24;20.00;;;8.40;;
11837;SDS011;5978;51.020;6.764;2022-08-21T03:01:50;13.37;;;7.40;;
11837;SDS011;5978;51.020;6.764;2022-08-21T03:04:15;9.53;;;8.53;;
11837;SDS011;5978;51.020;6.764;2022-08-21T03:06:41;14.10;;;8.17;;
11837;SDS011;5978;51.020;6.764;2022-08-21T03:09:07;11.50;;;8.90;;
11837;SDS011;5978;51.020;6.764;2022-08-21T03:11:33;10.07;;;9.07;;
11837;SDS011;5978;51.020;6.764;2022-08-21T03:13:59;16.80;;;8.97;;
11837;SDS011;5978;51.020;6.764;2022-08-21T03:16:24;10.20;;;9.13;;
11837;SDS011;5978;51.020;6.764;2022-08-21T03:18:50;17.93;;;9.97;;
11837;SDS011;5978;51.020;6.764;2022-08-21T03:21:15;11.37;;;9.07;;
11837;SDS011;5978;51.020;6.764;2022-08-21T03:23:43;10.70;;;9.50;;
11837;SDS011;5978;51.020;6.764;2022-08-21T03:26:09;12.80;;;8.97;;
11837;SDS011;5978;51.020;6.764;2022-08-21T03:28:35;13.43;;;7.87;;
11837;SDS011;5978;51.020;6.764;2022-08-21T03:31:01;10.70;;;8.27;;
11837;SDS011;5978;51.020;6.764;2022-08-21T03:33:27;11.13;;;8.80;;
11837;SDS011;5978;51.020;6.764;2022-08-21T03:36:04;11.47;;;8.80;;
11837;SDS011;5978;51.020;6.764;2022-08-21T03:38:32;11.00;;;9.90;;
11837;SDS011;5978;51.020;6.764;2022-08-21T03:40:59;13.80;;;10.30;;
11837;SDS011;5978;51.020;6.764;2022-08-21T03:43:25;13.33;;;10.43;;
11837;SDS011;5978;51.020;6.764;2022-08-21T03:45:52;15.63;;;10.17;;
11837;SDS011;5978;51.020;6.764;2022-08-21T03:48:17;12.37;;;10.67;;
11837;SDS011;5978;51.020;6.764;2022-08-21T03:50:43;9.70;;;8.73;;
11837;SDS011;5978;51.020;6.764;2022-08-21T03:53:12;11.47;;;10.40;;
11837;SDS011;5978;51.020;6.764;2022-08-21T03:55:39;10.50;;;9.60;;
11837;SDS011;5978;51.020;6.764;2022-08-21T03:58:05;11.00;;;9.47;;
11837;SDS011;5978;51.020;6.764;2022-08-21T04:00:31;10.07;;;8.67;;
11837;SDS011;5978;51.020;6.764;2022-08-21T04:02:56;10.63;;;9.30;;
11837;SDS011;5978;51.020;6.764;2022-08-21T04:05:22;12.70;;;10.27;;
11837;SDS011;5978;51.020;6.764;2022-08-21T04:07:58;12.50;;;9.50;;
11837;SDS011;5978;51.020;6.764;2022-08-21T04:10:43;10.70;;;9.60;;
11837;SDS011;5978;51.020;6.764;2022-08-21T04:13:11;11.97;;;10.20;;
11837;SDS011;5978;51.020;6.764;2022-08-21T04:15:37;13.07;;;10.27;;
11837;SDS011;5978;51.020;6.764;2022-08-21T04:18:03;12.90;;;10.60;;
11837;SDS011;5978;51.020;6.764;2022-08-21T04:20:29;11.73;;;10.53;;
11837;SDS011;5978;51.020;6.764;2022-08-21T04:22:55;17.47;;;11.00;;
11837;SDS011;5978;51.020;6.764;2022-08-21T04:25:22;15.20;;;10.90;;
11837;SDS011;5978;51.020;6.764;2022-08-21T04:27:48;12.10;;;10.67;;
11837;SDS011;5978;51.020;6.764;2022-08-21T04:30:14;14.00;;;10.90;;
11837;SDS011;5978;51.020;6.764;2022-08-21T04:32:44;14.40;;;11.93;;
11837;SDS011;5978;51.020;6.764;2022-08-21T04:35:11;13.97;;;11.37;;
11837;SDS011;5978;51.020;6.764;2022-08-21T04:37:38;14.60;;;11.33;;
11837;SDS011;5978;51.020;6.764;2022-08-21T04:40:05;19.27;;;12.93;;
11837;SDS011;5978;51.020;6.764;2022-08-21T04:42:32;14.83;;;11.40;;
11837;SDS011;5978;51.020;6.764;2022-08-21T04:44:57;16.27;;;10.80;;
11837;SDS011;5978;51.020;6.764;2022-08-21T04:47:23;14.70;;;11.37;;
11837;SDS011;5978;51.020;6.764;2022-08-21T04:49:49;14.23;;;10.80;;
11837;SDS011;5978;51.020;6.764;2022-08-21T04:52:17;15.53;;;12.70;;
11837;SDS011;5978;51.020;6.764;2022-08-21T04:54:46;13.13;;;11.53;;
11837;SDS011;5978;51.020;6.764;2022-08-21T04:57:14;11.53;;;10.43;;
11837;SDS011;5978;51.020;6.764;2022-08-21T04:59:42;15.80;;;11.73;;
11837;SDS011;5978;51.020;6.764;2022-08-21T05:02:13;15.90;;;11.67;;
11837;SDS011;5978;51.020;6.764;2022-08-21T05:04:42;15.47;;;11.50;;
11837;SDS011;5978;51.020;6.764;2022-08-21T05:07:12;12.93;;;11.33;;
11837;SDS011;5978;51.020;6.764;2022-08-21T05:09:42;13.40;;;11.33;;
11837;SDS011;5978;51.020;6.764;2022-08-21T05:12:07;14.70;;;11.07;;
11837;SDS011;5978;51.020;6.764;2022-08-21T05:14:33;13.53;;;11.87;;
11837;SDS011;5978;51.020;6.764;2022-08-21T05:16:59;15.17;;;12.00;;
11837;SDS011;5978;51.020;6.764;2022-08-21T05:19:24;19.27;;;10.63;;
11837;SDS011;5978;51.020;6.764;2022-08-21T05:21:51;16.40;;;13.40;;
11837;SDS011;5978;51.020;6.764;2022-08-21T05:24:35;19.43;;;12.53;;
11837;SDS011;5978;51.020;6.764;2022-08-21T05:27:01;18.90;;;11.77;;
11837;SDS011;5978;51.020;6.764;2022-08-21T05:29:26;16.93;;;11.33;;
11837;SDS011;5978;51.020;6.764;2022-08-21T05:31:52;20.80;;;13.47;;
11837;SDS011;5978;51.020;6.764;2022-08-21T05:34:18;19.67;;;14.00;;
11837;SDS011;5978;51.020;6.764;2022-08-21T05:36:45;16.03;;;13.30;;
11837;SDS011;5978;51.020;6.764;2022-08-21T05:39:12;18.93;;;12.80;;
11837;SDS011;5978;51.020;6.764;2022-08-21T05:41:38;16.03;;;12.57;;
11837;SDS011;5978;51.020;6.764;2022-08-21T05:44:03;13.20;;;11.90;;
11837;SDS011;5978;51.020;6.764;2022-08-21T05:46:29;19.30;;;13.87;;
11837;SDS011;5978;51.020;6.764;2022-08-21T05:48:55;15.70;;;12.90;;
11837;SDS011;5978;51.020;6.764;2022-08-21T05:51:20;16.60;;;13.73;;
11837;SDS011;5978;51.020;6.764;2022-08-21T05:53:46;18.10;;;13.87;;
11837;SDS011;5978;51.020;6.764;2022-08-21T05:56:12;15.50;;;12.37;;
11837;SDS011;5978;51.020;6.764;2022-08-21T05:58:38;18.23;;;11.80;;
11837;SDS011;5978;51.020;6.764;2022-08-21T06:01:04;13.00;;;11.30;;
11837;SDS011;5978;51.020;6.764;2022-08-21T06:03:32;14.70;;;11.27;;
11837;SDS011;5978;51.020;6.764;2022-08-21T06:06:01;13.60;;;12.20;;
11837;SDS011;5978;51.020;6.764;2022-08-21T06:08:28;24.53;;;12.40;;
11837;SDS011;5978;51.020;6.764;2022-08-21T06:10:55;16.97;;;12.03;;
11837;SDS011;5978;51.020;6.764;2022-08-21T06:16:22;16.43;;;13.07;;
11837;SDS011;5978;51.020;6.764;2022-08-21T06:18:49;13.03;;;11.23;;
11837;SDS011;5978;51.020;6.764;2022-08-21T06:21:14;13.80;;;11.63;;
11837;SDS011;5978;51.020;6.764;2022-08-21T06:23:41;12.87;;;11.60;;
11837;SDS011;5978;51.020;6.764;2022-08-21T06:26:07;11.37;;;10.20;;
11837;SDS011;5978;51.020;6.764;2022-08-21T06:28:35;16.17;;;9.53;;
11837;SDS011;5978;51.020;6.764;2022-08-21T06:31:09;15.10;;;9.63;;
11837;SDS011;5978;51.020;6.764;2022-08-21T06:33:36;13.53;;;8.30;;
11837;SDS011;5978;51.020;6.764;2022-08-21T06:36:02;11.13;;;8.00;;
11837;SDS011;5978;51.020;6.764;2022-08-21T06:41:19;11.73;;;7.23;;
11837;SDS011;5978;51.020;6.764;2022-08-21T06:43:44;11.63;;;7.87;;
11837;SDS011;5978;51.020;6.764;2022-08-21T06:46:10;12.60;;;7.60;;
11837;SDS011;5978;51.020;6.764;2022-08-21T06:48:36;9.67;;;6.20;;
11837;SDS011;5978;51.020;6.764;2022-08-21T06:51:01;12.27;;;6.50;;
11837;SDS011;5978;51.020;6.764;2022-08-21T06:53:27;11.30;;;5.97;;
11837;SDS011;5978;51.020;6.764;2022-08-21T06:55:53;8.50;;;4.27;;
11837;SDS011;5978;51.020;6.764;2022-08-21T06:58:19;5.80;;;3.83;;
11837;SDS011;5978;51.020;6.764;2022-08-21T07:00:45;16.33;;;5.30;;
11837;SDS011;5978;51.020;6.764;2022-08-21T07:03:20;9.00;;;3.97;;
11837;SDS011;5978;51.020;6.764;2022-08-21T07:05:50;8.80;;;5.03;;
11837;SDS011;5978;51.020;6.764;2022-08-21T07:08:16;7.50;;;4.53;;
11837;SDS011;5978;51.020;6.764;2022-08-21T07:10:42;7.00;;;4.30;;
11837;SDS011;5978;51.020;6.764;2022-08-21T07:13:08;6.67;;;4.10;;
11837;SDS011;5978;51.020;6.764;2022-08-21T07:15:34;10.63;;;4.27;;
11837;SDS011;5978;51.020;6.764;2022-08-21T07:17:59;8.43;;;3.70;;
11837;SDS011;5978;51.020;6.764;2022-08-21T07:20:29;11.10;;;4.17;;
11837;SDS011;5978;51.020;6.764;2022-08-21T07:22:56;6.57;;;3.67;;
11837;SDS011;5978;51.020;6.764;2022-08-21T07:25:30;14.03;;;4.77;;
11837;SDS011;5978;51.020;6.764;2022-08-21T07:27:56;7.37;;;3.80;;
11837;SDS011;5978;51.020;6.764;2022-08-21T07:30:22;4.20;;;3.20;;
11837;SDS011;5978;51.020;6.764;2022-08-21T07:32:47;6.43;;;3.30;;
11837;SDS011;5978;51.020;6.764;2022-08-21T07:35:17;4.20;;;3.43;;
11837;SDS011;5978;51.020;6.764;2022-08-21T07:37:43;8.43;;;4.03;;
11837;SDS011;5978;51.020;6.764;2022-08-21T07:40:09;6.53;;;3.60;;
11837;SDS011;5978;51.020;6.764;2022-08-21T07:42:39;5.50;;;3.50;;
11837;SDS011;5978;51.020;6.764;2022-08-21T07:45:09;13.30;;;3.97;;
11837;SDS011;5978;51.020;6.764;2022-08-21T07:47:35;6.17;;;3.47;;
11837;SDS011;5978;51.020;6.764;2022-08-21T07:50:01;5.60;;;3.30;;
11837;SDS011;5978;51.020;6.764;2022-08-21T07:52:27;7.23;;;4.07;;
11837;SDS011;5978;51.020;6.764;2022-08-21T07:54:53;5.80;;;3.90;;
11837;SDS011;5978;51.020;6.764;2022-08-21T07:57:18;9.77;;;4.17;;
11837;SDS011;5978;51.020;6.764;2022-08-21T07:59:44;12.20;;;3.50;;
11837;SDS011;5978;51.020;6.764;2022-08-21T08:02:09;6.47;;;3.47;;
11837;SDS011;5978;51.020;6.764;2022-08-21T08:04:45;6.23;;;2.57;;
11837;SDS011;5978;51.020;6.764;2022-08-21T08:07:11;5.17;;;3.00;;
11837;SDS011;5978;51.020;6.764;2022-08-21T08:09:37;4.70;;;3.23;;
11837;SDS011;5978;51.020;6.764;2022-08-21T08:12:02;5.40;;;3.03;;
11837;SDS011;5978;51.020;6.764;2022-08-21T08:14:28;9.50;;;3.10;;
11837;SDS011;5978;51.020;6.764;2022-08-21T08:16:54;6.40;;;3.17;;
11837;SDS011;5978;51.020;6.764;2022-08-21T08:19:20;7.17;;;2.90;;
11837;SDS011;5978;51.020;6.764;2022-08-21T08:21:45;3.10;;;1.87;;
11837;SDS011;5978;51.020;6.764;2022-08-21T08:24:11;4.80;;;2.67;;
11837;SDS011;5978;51.020;6.764;2022-08-21T08:26:36;7.40;;;3.23;;
11837;SDS011;5978;51.020;6.764;2022-08-21T08:29:02;5.10;;;2.30;;
11837;SDS011;5978;51.020;6.764;2022-08-21T08:31:28;2.50;;;1.53;;
11837;SDS011;5978;51.020;6.764;2022-08-21T08:33:53;12.43;;;2.33;;
11837;SDS011;5978;51.020;6.764;2022-08-21T08:36:19;3.17;;;1.50;;
11837;SDS011;5978;51.020;6.764;2022-08-21T08:38:45;5.67;;;2.27;;
11837;SDS011;5978;51.020;6.764;2022-08-21T08:41:13;3.17;;;2.10;;
11837;SDS011;5978;51.020;6.764;2022-08-21T08:43:54;4.40;;;2.20;;
11837;SDS011;5978;51.020;6.764;2022-08-21T08:46:31;5.13;;;1.60;;
11837;SDS011;5978;51.020;6.764;2022-08-21T08:49:12;6.23;;;2.67;;
11837;SDS011;5978;51.020;6.764;2022-08-21T08:54:34;8.77;;;2.17;;
11837;SDS011;5978;51.020;6.764;2022-08-21T08:57:07;5.80;;;2.00;;
11837;SDS011;5978;51.020;6.764;2022-08-21T08:59:40;2.97;;;2.00;;
11837;SDS011;5978;51.020;6.764;2022-08-21T09:02:10;3.63;;;1.87;;
11837;SDS011;5978;51.020;6.764;2022-08-21T09:04:36;5.20;;;1.80;;
11837;SDS011;5978;51.020;6.764;2022-08-21T09:09:51;7.13;;;1.90;;
11837;SDS011;5978;51.020;6.764;2022-08-21T09:12:33;3.17;;;1.60;;
11837;SDS011;5978;51.020;6.764;2022-08-21T09:15:33;3.70;;;1.80;;
11837;SDS011;5978;51.020;6.764;2022-08-21T09:18:51;3.80;;;1.60;;
11837;SDS011;5978;51.020;6.764;2022-08-21T09:21:35;5.23;;;2.17;;
11837;SDS011;5978;51.020;6.764;2022-08-21T09:29:28;4.90;;;1.50;;
11837;SDS011;5978;51.020;6.764;2022-08-21T09:31:58;4.13;;;1.90;;
11837;SDS011;5978;51.020;6.764;2022-08-21T09:34:25;6.10;;;1.87;;
11837;SDS011;5978;51.020;6.764;2022-08-21T09:36:53;7.10;;;2.07;;
11837;SDS011;5978;51.020;6.764;2022-08-21T09:42:24;3.87;;;2.07;;
11837;SDS011;5978;51.020;6.764;2022-08-21T09:47:50;4.17;;;1.80;;
11837;SDS011;5978;51.020;6.764;2022-08-21T09:50:18;3.27;;;2.07;;
11837;SDS011;5978;51.020;6.764;2022-08-21T09:52:51;5.10;;;2.03;;
11837;SDS011;5978;51.020;6.764;2022-08-21T09:55:33;4.93;;;2.03;;
11837;SDS011;5978;51.020;6.764;2022-08-21T09:58:29;4.97;;;1.70;;
11837;SDS011;5978;51.020;6.764;2022-08-21T10:01:00;2.80;;;1.70;;
11837;SDS011;5978;51.020;6.764;2022-08-21T10:03:27;3.30;;;1.90;;
11837;SDS011;5978;51.020;6.764;2022-08-21T10:06:03;4.77;;;2.13;;
11837;SDS011;5978;51.020;6.764;2022-08-21T10:08:33;5.03;;;1.97;;
11837;SDS011;5978;51.020;6.764;2022-08-21T10:11:06;3.60;;;1.70;;
11837;SDS011;5978;51.020;6.764;2022-08-21T10:16:22;5.87;;;2.70;;
11837;SDS011;5978;51.020;6.764;2022-08-21T10:21:54;6.37;;;2.40;;
11837;SDS011;5978;51.020;6.764;2022-08-21T10:24:31;3.00;;;1.57;;
11837;SDS011;5978;51.020;6.764;2022-08-21T10:27:20;5.90;;;2.57;;
11837;SDS011;5978;51.020;6.764;2022-08-21T10:30:07;3.10;;;1.87;;
11837;SDS011;5978;51.020;6.764;2022-08-21T10:35:48;5.27;;;2.10;;
11837;SDS011;5978;51.020;6.764;2022-08-21T10:41:08;4.90;;;2.27;;
11837;SDS011;5978;51.020;6.764;2022-08-21T10:55:04;2.13;;;1.93;;
11837;SDS011;5978;51.020;6.764;2022-08-21T10:57:40;2.73;;;1.80;;
11837;SDS011;5978;51.020;6.764;2022-08-21T11:00:23;3.87;;;2.10;;
11837;SDS011;5978;51.020;6.764;2022-08-21T11:03:07;3.97;;;1.60;;
11837;SDS011;5978;51.020;6.764;2022-08-21T11:05:52;6.60;;;2.03;;
11837;SDS011;5978;51.020;6.764;2022-08-21T11:08:33;4.20;;;2.00;;
11837;SDS011;5978;51.020;6.764;2022-08-21T11:11:18;4.77;;;2.20;;
11837;SDS011;5978;51.020;6.764;2022-08-21T11:13:55;4.93;;;2.03;;
11837;SDS011;5978;51.020;6.764;2022-08-21T11:16:41;3.10;;;1.83;;
11837;SDS011;5978;51.020;6.764;2022-08-21T11:19:15;5.47;;;1.73;;
11837;SDS011;5978;51.020;6.764;2022-08-21T11:22:13;9.30;;;2.50;;
11837;SDS011;5978;51.020;6.764;2022-08-21T11:27:52;2.97;;;1.87;;
11837;SDS011;5978;51.020;6.764;2022-08-21T11:30:24;4.37;;;2.07;;
11837;SDS011;5978;51.020;6.764;2022-08-21T11:38:20;3.65;;;1.90;;
11837;SDS011;5978;51.020;6.764;2022-08-21T11:43:43;4.73;;;1.80;;
11837;SDS011;5978;51.020;6.764;2022-08-21T11:51:16;3.53;;;1.87;;
11837;SDS011;5978;51.020;6.764;2022-08-21T11:54:02;6.57;;;2.30;;
11837;SDS011;5978;51.020;6.764;2022-08-21T11:56:43;4.40;;;2.20;;
11837;SDS011;5978;51.020;6.764;2022-08-21T11:59:16;5.50;;;2.17;;
11837;SDS011;5978;51.020;6.764;2022-08-21T12:01:47;3.07;;;1.63;;
11837;SDS011;5978;51.020;6.764;2022-08-21T12:04:20;4.33;;;2.47;;
11837;SDS011;5978;51.020;6.764;2022-08-21T12:06:53;2.43;;;1.70;;
11837;SDS011;5978;51.020;6.764;2022-08-21T12:14:35;5.93;;;2.33;;
11837;SDS011;5978;51.020;6.764;2022-08-21T12:17:05;6.47;;;2.00;;
11837;SDS011;5978;51.020;6.764;2022-08-21T12:19:32;5.73;;;2.03;;
11837;SDS011;5978;51.020;6.764;2022-08-21T12:24:32;2.90;;;1.93;;
11837;SDS011;5978;51.020;6.764;2022-08-21T12:29:49;2.03;;;1.83;;
11837;SDS011;5978;51.020;6.764;2022-08-21T12:32:28;4.03;;;2.33;;
11837;SDS011;5978;51.020;6.764;2022-08-21T12:38:06;2.67;;;2.00;;
11837;SDS011;5978;51.020;6.764;2022-08-21T12:43:34;3.20;;;1.70;;
11837;SDS011;5978;51.020;6.764;2022-08-21T12:46:06;2.40;;;1.47;;
11837;SDS011;5978;51.020;6.764;2022-08-21T12:48:47;4.90;;;2.30;;
11837;SDS011;5978;51.020;6.764;2022-08-21T12:54:07;6.53;;;1.57;;
11837;SDS011;5978;51.020;6.764;2022-08-21T12:56:33;3.97;;;1.80;;
11837;SDS011;5978;51.020;6.764;2022-08-21T12:59:03;3.93;;;1.63;;
11837;SDS011;5978;51.020;6.764;2022-08-21T13:04:06;4.70;;;1.83;;
11837;SDS011;5978;51.020;6.764;2022-08-21T13:06:43;5.77;;;2.60;;
11837;SDS011;5978;51.020;6.764;2022-08-21T13:09:13;4.27;;;1.63;;
11837;SDS011;5978;51.020;6.764;2022-08-21T13:11:42;3.27;;;2.07;;
11837;SDS011;5978;51.020;6.764;2022-08-21T13:14:55;6.50;;;2.13;;
11837;SDS011;5978;51.020;6.764;2022-08-21T13:17:03;5.20;;;2.43;;
11837;SDS011;5978;51.020;6.764;2022-08-21T13:19:30;4.67;;;2.00;;
11837;SDS011;5978;51.020;6.764;2022-08-21T13:21:56;3.10;;;1.67;;
11837;SDS011;5978;51.020;6.764;2022-08-21T13:24:24;3.47;;;1.60;;
11837;SDS011;5978;51.020;6.764;2022-08-21T13:26:55;5.30;;;1.80;;
11837;SDS011;5978;51.020;6.764;2022-08-21T13:29:22;5.33;;;1.67;;
11837;SDS011;5978;51.020;6.764;2022-08-21T13:32:00;1.77;;;1.43;;
11837;SDS011;5978;51.020;6.764;2022-08-21T13:34:31;3.80;;;1.43;;
11837;SDS011;5978;51.020;6.764;2022-08-21T13:37:00;4.07;;;2.00;;
11837;SDS011;5978;51.020;6.764;2022-08-21T13:39:29;3.30;;;1.20;;
11837;SDS011;5978;51.020;6.764;2022-08-21T13:41:56;1.13;;;1.00;;
11837;SDS011;5978;51.020;6.764;2022-08-21T13:44:24;4.40;;;1.70;;
11837;SDS011;5978;51.020;6.764;2022-08-21T13:47:01;2.73;;;1.50;;
11837;SDS011;5978;51.020;6.764;2022-08-21T13:49:30;2.00;;;1.50;;
11837;SDS011;5978;51.020;6.764;2022-08-21T13:52:15;4.20;;;1.00;;
11837;SDS011;5978;51.020;6.764;2022-08-21T13:54:59;2.33;;;1.37;;
11837;SDS011;5978;51.020;6.764;2022-08-21T13:57:35;2.87;;;1.23;;
11837;SDS011;5978;51.020;6.764;2022-08-21T14:02:51;1.80;;;1.30;;
11837;SDS011;5978;51.020;6.764;2022-08-21T14:05:25;1.80;;;1.30;;
11837;SDS011;5978;51.020;6.764;2022-08-21T14:08:02;2.70;;;1.67;;
11837;SDS011;5978;51.020;6.764;2022-08-21T14:10:47;2.07;;;1.10;;
11837;SDS011;5978;51.020;6.764;2022-08-21T14:15:57;3.70;;;1.50;;
11837;SDS011;5978;51.020;6.764;2022-08-21T14:18:26;2.83;;;1.00;;
11837;SDS011;5978;51.020;6.764;2022-08-21T14:21:02;3.20;;;1.10;;
11837;SDS011;5978;51.020;6.764;2022-08-21T14:23:33;1.93;;;1.20;;
11837;SDS011;5978;51.020;6.764;2022-08-21T14:25:59;1.80;;;1.37;;
11837;SDS011;5978;51.020;6.764;2022-08-21T14:28:30;1.77;;;1.10;;
11837;SDS011;5978;51.020;6.764;2022-08-21T14:31:19;2.23;;;1.13;;
11837;SDS011;5978;51.020;6.764;2022-08-21T14:33:45;2.20;;;1.30;;
11837;SDS011;5978;51.020;6.764;2022-08-21T14:36:11;6.87;;;1.30;;
11837;SDS011;5978;51.020;6.764;2022-08-21T14:38:38;2.80;;;1.50;;
11837;SDS011;5978;51.020;6.764;2022-08-21T14:41:12;4.07;;;1.37;;
11837;SDS011;5978;51.020;6.764;2022-08-21T14:43:46;5.27;;;1.70;;
11837;SDS011;5978;51.020;6.764;2022-08-21T14:46:13;2.63;;;1.23;;
11837;SDS011;5978;51.020;6.764;2022-08-21T14:48:44;2.13;;;1.40;;
11837;SDS011;5978;51.020;6.764;2022-08-21T14:51:11;3.10;;;1.30;;
11837;SDS011;5978;51.020;6.764;2022-08-21T14:53:38;2.23;;;1.60;;
11837;SDS011;5978;51.020;6.764;2022-08-21T14:56:03;2.50;;;1.40;;
11837;SDS011;5978;51.020;6.764;2022-08-21T14:58:29;2.30;;;1.57;;
11837;SDS011;5978;51.020;6.764;2022-08-21T15:00:56;3.63;;;1.43;;
11837;SDS011;5978;51.020;6.764;2022-08-21T15:03:23;2.90;;;1.57;;
11837;SDS011;5978;51.020;6.764;2022-08-21T15:05:49;1.83;;;1.10;;
11837;SDS011;5978;51.020;6.764;2022-08-21T15:08:15;4.80;;;1.30;;
11837;SDS011;5978;51.020;6.764;2022-08-21T15:10:42;1.87;;;1.37;;
11837;SDS011;5978;51.020;6.764;2022-08-21T15:13:08;3.90;;;1.50;;
11837;SDS011;5978;51.020;6.764;2022-08-21T15:15:39;2.97;;;1.80;;
11837;SDS011;5978;51.020;6.764;2022-08-21T15:18:10;3.43;;;1.70;;
11837;SDS011;5978;51.020;6.764;2022-08-21T15:20:36;2.60;;;1.40;;
11837;SDS011;5978;51.020;6.764;2022-08-21T15:23:03;2.10;;;0.93;;
11837;SDS011;5978;51.020;6.764;2022-08-21T15:25:33;4.83;;;1.50;;
11837;SDS011;5978;51.020;6.764;2022-08-21T15:28:00;5.10;;;1.23;;
11837;SDS011;5978;51.020;6.764;2022-08-21T15:30:26;2.60;;;1.90;;
11837;SDS011;5978;51.020;6.764;2022-08-21T15:32:54;2.10;;;1.43;;
11837;SDS011;5978;51.020;6.764;2022-08-21T15:35:22;1.90;;;1.33;;
11837;SDS011;5978;51.020;6.764;2022-08-21T15:37:48;3.03;;;1.47;;
11837;SDS011;5978;51.020;6.764;2022-08-21T15:40:14;1.83;;;1.30;;
11837;SDS011;5978;51.020;6.764;2022-08-21T15:42:41;3.07;;;1.67;;
11837;SDS011;5978;51.020;6.764;2022-08-21T15:45:07;2.13;;;1.30;;
11837;SDS011;5978;51.020;6.764;2022-08-21T15:47:36;3.23;;;1.27;;
11837;SDS011;5978;51.020;6.764;2022-08-21T15:50:03;6.07;;;1.47;;
11837;SDS011;5978;51.020;6.764;2022-08-21T15:52:32;3.73;;;2.00;;
11837;SDS011;5978;51.020;6.764;2022-08-21T15:54:58;2.43;;;1.40;;
11837;SDS011;5978;51.020;6.764;2022-08-21T15:57:25;5.90;;;1.80;;
11837;SDS011;5978;51.020;6.764;2022-08-21T15:59:56;3.80;;;1.30;;
11837;SDS011;5978;51.020;6.764;2022-08-21T16:02:27;2.50;;;1.40;;
11837;SDS011;5978;51.020;6.764;2022-08-21T16:04:56;2.33;;;1.40;;
11837;SDS011;5978;51.020;6.764;2022-08-21T16:07:22;3.70;;;1.23;;
11837;SDS011;5978;51.020;6.764;2022-08-21T16:09:50;2.47;;;1.50;;
11837;SDS011;5978;51.020;6.764;2022-08-21T16:12:21;2.83;;;1.73;;
11837;SDS011;5978;51.020;6.764;2022-08-21T16:14:48;2.70;;;1.60;;
11837;SDS011;5978;51.020;6.764;2022-08-21T16:17:17;2.80;;;1.33;;
11837;SDS011;5978;51.020;6.764;2022-08-21T16:19:43;3.47;;;1.70;;
11837;SDS011;5978;51.020;6.764;2022-08-21T16:22:09;2.90;;;1.70;;
11837;SDS011;5978;51.020;6.764;2022-08-21T16:24:34;3.13;;;1.40;;
11837;SDS011;5978;51.020;6.764;2022-08-21T16:27:00;3.17;;;1.30;;
11837;SDS011;5978;51.020;6.764;2022-08-21T16:29:28;3.57;;;1.67;;
11837;SDS011;5978;51.020;6.764;2022-08-21T16:31:58;4.17;;;1.60;;
11837;SDS011;5978;51.020;6.764;2022-08-21T16:34:23;4.40;;;1.43;;
11837;SDS011;5978;51.020;6.764;2022-08-21T16:36:49;3.70;;;1.77;;
11837;SDS011;5978;51.020;6.764;2022-08-21T16:39:15;1.83;;;1.20;;